PAJNPAWG

Guest
Details From PAJN - Juneau Intl
To PAWG - WRANGELL
Flight Number -
Tags generated
Created
Modified
Stats Distance 140 nm / 258 km
Max Altitude 7,000 ft / 2,134 m
Waypoints 4
Social Downloads 1
Likes 0
Share VATSIM

Download

Looking for another format? Having issues loading an existing format? Contact us
Advertisement - Login to hide

Notes

Basic altitude profile: - Ascent Rate: 2500ft/min - Ascent Speed: 250kts - Cruise Altitude: 35000ft - Cruise Speed: 420kts - Descent Rate: 1500ft/min - Descent Speed: 250kts Options: - Use NATs: yes - Use PACOTS: yes - Use low airways: yes - Use high airways: yes

Route

PAJN CGL T266 FPN PAWG

ID Type Via Altitude Latitude Longitude Leg Dist Tot Dist Heading (true) Name
O PAJN APT - 0 ft / 0 m 58.35496˚ -134.57628˚ - 0 nm - Juneau Intl
CGL NDB - 1,300 ft / 396 m 58.35933˚ -134.69944˚ 3 nm 3 nm 274° / 274° COGHLAN ISLAND NDB
FPN NDB T266 (AWY-LO) 7,000 ft / 2,134 m 56.79225˚ -132.82097˚ 111 nm 115 nm 146° / 148° FREDERICKS POINT NDB
O PAWG APT - 0 ft / 0 m 56.48432˚ -132.36983˚ 23 nm 139 nm 141° / 141° WRANGELL

Altitude Profile

Advertisement - Login to hide

PAJN

Details ICAO PAJN (JNU)
Name Juneau Intl
Region USA (Alaska)
Timezone America/Juneau (UTC-9.0)
Stats Elevation 21 ft / 6 m (AMSL)
Location 58.354964° -134.576278°
Runways 1
Magnetic Variation 19.151° E

METAR

PAJN 110153Z 09008KT 10SM -RA BKN044 OVC060 06/05 A2998

Decode

TAF

TAF PAJN 102338Z 1100/1124 08008KT P6SM SCT040 OVC140 FM110300 11015G22KT P6SM -RA FEW008 BKN040 OVC070 WS020/12040KT FM110600 11021G32KT 5SM RA BR FEW007 BKN025 OVC040 WS020/14045KT FM112000 11012KT P6SM -RA FEW015 BKN035 OVC040

Decode

Departure Runways

ID Width Length Bearing (true) Bearing (mag) Surface Threshold Offset Overrun Length
08 150 ft / 46 m 8,430 ft / 2,570 m 104.87° 85.72° Asphalt 0 ft / 0 m 450 ft / 137 m
26 150 ft / 46 m 8,430 ft / 2,570 m 284.90° 265.75° Asphalt 0 ft / 0 m 225 ft / 69 m

PAWG

Details ICAO PAWG (WRG)
Name WRANGELL
Region USA (Alaska)
Timezone America/Juneau (UTC-9.0)
Stats Elevation 44 ft / 13 m (AMSL)
Location 56.484324° -132.369832°
Runways 1
Magnetic Variation 18.811° E

METAR

PAWG 110156Z 06005KT 10SM -RA BKN050 OVC070 08/06 A3001

Decode

TAF

TAF PAWG 102338Z 1100/1124 09006KT P6SM VCSH BKN040 OVC170 FM110300 12017G27KT 5SM RA BR BKN025 OVC040 WS020/14045KT FM111000 12015G25KT P6SM VCSH SCT030 OVC110 WS020/14045KT AMD LTD TO CLD VIS AND WIND 1106/1115

Decode

Destination Runways

ID Width Length Bearing (true) Bearing (mag) Surface Threshold Offset Overrun Length
10 150 ft / 46 m 5,983 ft / 1,824 m 121.43° 102.62° Asphalt 0 ft / 0 m 0 ft / 0 m
28 150 ft / 46 m 5,983 ft / 1,824 m 301.45° 282.64° Asphalt 0 ft / 0 m 0 ft / 0 m

Approach Navaids

Runway Type Ident Frequency Range Bearing (true) Bearing (mag) Slope Elevation
10 Localiser IRGL 108.50 MHz 18 nm / 33 km 112.18° 93.37° - 40 ft / 12 m (AMSL)
10 DME IRGL 108.50 MHz 18 nm / 33 km - - - 58 ft / 18 m (AMSL)

Popular Alternatives